Time;durP1;ratioP1;P1;durP2;ratioP2;P2;SDS_P1;SDS_P2;PMS_P1;PMS_P2;Temp;Humidity;BMP_temperature;BMP_pressure;BME280_temperature;BME280_humidity;BME280_pressure;Samples;Min_cycle;Max_cycle;Signal;HPM_P1;HPM_P2
2021/08/03 00:00:35;;;;;;;6.08;2.92;;;;;;;21.57;61.58;99833.80;1748130;82;21617;-80
2021/08/03 00:03:03;;;;;;;4.55;3.10;;;;;;;21.58;61.58;99833.27;1749641;82;21004;-80
2021/08/03 00:05:33;;;;;;;5.00;2.90;;;;;;;21.57;61.52;99842.38;1745018;80;21772;-80
2021/08/03 00:08:05;;;;;;;4.33;2.50;;;;;;;21.56;61.39;99842.06;1713581;81;21020;-80
2021/08/03 00:10:32;;;;;;;7.55;3.22;;;;;;;21.55;61.42;99847.96;1751060;82;21380;-80
2021/08/03 00:12:59;;;;;;;7.53;3.10;;;;;;;21.53;61.40;99851.38;1741505;80;21520;-80
2021/08/03 00:15:26;;;;;;;6.60;3.10;;;;;;;21.52;61.76;99856.45;1755865;80;21001;-80
2021/08/03 00:17:56;;;;;;;7.37;3.37;;;;;;;21.53;61.46;99866.16;1754895;80;21840;-80
2021/08/03 00:20:25;;;;;;;5.92;3.00;;;;;;;21.53;61.37;99868.84;1720231;83;20945;-81
2021/08/03 00:22:56;;;;;;;6.53;3.20;;;;;;;21.56;61.67;99862.22;1727791;81;21492;-81
2021/08/03 00:25:24;;;;;;;6.60;3.60;;;;;;;21.56;62.12;99870.28;1729145;80;21429;-80
2021/08/03 00:27:51;;;;;;;5.90;3.10;;;;;;;21.54;62.14;99858.92;1745003;81;21045;-80
2021/08/03 00:30:18;;;;;;;7.92;3.37;;;;;;;21.51;62.35;99852.59;1743524;82;22224;-81
2021/08/03 00:32:47;;;;;;;7.80;3.10;;;;;;;21.49;62.75;99854.14;1735807;82;21007;-81
2021/08/03 00:35:14;;;;;;;6.55;3.17;;;;;;;21.44;63.16;99856.63;1750916;80;21431;-81
2021/08/03 00:37:41;;;;;;;6.40;3.10;;;;;;;21.36;63.31;99850.11;1738988;80;21382;-80
2021/08/03 00:40:10;;;;;;;6.47;2.90;;;;;;;21.28;63.50;99857.84;1742647;82;21044;-81
2021/08/03 00:42:37;;;;;;;6.00;3.02;;;;;;;21.21;62.77;99872.25;1741914;82;21804;-80
2021/08/03 00:45:05;;;;;;;9.40;3.05;;;;;;;21.18;62.62;99878.86;1747037;80;21018;-81
2021/08/03 00:47:33;;;;;;;5.92;3.10;;;;;;;21.11;62.22;99881.52;1731839;80;20977;-80
2021/08/03 00:50:02;;;;;;;6.28;3.10;;;;;;;21.07;62.48;99894.22;1745095;81;20979;-79
2021/08/03 00:52:30;;;;;;;5.40;3.30;;;;;;;21.05;63.01;99907.03;1751118;82;21003;-80
2021/08/03 00:54:57;;;;;;;5.33;2.42;;;;;;;20.98;63.44;99904.30;1737711;80;22189;-81
2021/08/03 00:57:25;;;;;;;7.87;2.33;;;;;;;20.90;63.06;99906.33;1747319;80;21063;-80
2021/08/03 00:59:53;;;;;;;2.95;2.10;;;;;;;20.87;62.59;99918.31;1745776;81;21368;-80
2021/08/03 01:02:22;;;;;;;5.42;1.80;;;;;;;20.84;62.21;99926.73;1745011;81;20978;-81
2021/08/03 01:04:49;;;;;;;4.25;1.82;;;;;;;20.82;61.80;99932.83;1746813;81;20997;-81
2021/08/03 01:07:36;;;;;;;3.02;1.60;;;;;;;20.83;61.65;99929.94;1760249;80;22214;-80
2021/08/03 01:10:17;;;;;;;2.37;1.60;;;;;;;20.86;61.61;99928.73;1749824;81;21392;-80
2021/08/03 01:13:13;;;;;;;2.60;1.77;;;;;;;20.87;61.26;99937.09;1736534;81;21040;-81
2021/08/03 01:15:54;;;;;;;2.35;1.50;;;;;;;20.88;61.09;99946.80;1740424;80;21134;-81
2021/08/03 01:18:41;;;;;;;2.08;1.50;;;;;;;20.90;60.90;99944.74;1735663;81;21016;-81
2021/08/03 01:21:41;;;;;;;2.65;1.37;;;;;;;20.84;60.86;99953.58;1748736;81;21897;-80
2021/08/03 01:24:51;;;;;;;1.87;1.30;;;;;;;20.80;60.71;99955.02;1745594;80;21013;-79
2021/08/03 01:28:14;;;;;;;2.37;1.12;;;;;;;20.82;60.67;99956.98;1757800;80;21004;-78
2021/08/03 01:30:53;;;;;;;4.20;1.07;;;;;;;20.82;60.28;99965.86;1734706;81;21036;-82
2021/08/03 01:33:24;;;;;;;2.35;1.20;;;;;;;20.78;59.87;99949.02;1745112;81;21515;-80
2021/08/03 01:35:53;;;;;;;1.30;1.00;;;;;;;20.73;59.44;99941.55;1750052;80;22471;-80
2021/08/03 01:38:20;;;;;;;2.58;1.00;;;;;;;20.73;59.37;99952.28;1698145;81;21024;-80
2021/08/03 01:40:50;;;;;;;1.57;1.07;;;;;;;20.70;59.17;99945.98;1747042;81;21038;-80
2021/08/03 01:43:16;;;;;;;1.37;1.00;;;;;;;20.68;59.22;99948.55;1747832;81;21444;-81
2021/08/03 01:45:45;;;;;;;2.70;1.10;;;;;;;20.68;59.38;99950.73;1727426;80;20996;-81
2021/08/03 01:48:12;;;;;;;1.42;0.80;;;;;;;20.68;59.39;99963.31;1742769;80;21814;-79
2021/08/03 01:50:40;;;;;;;2.80;1.10;;;;;;;20.66;59.39;99961.34;1721208;82;21052;-80
2021/08/03 01:53:08;;;;;;;3.10;1.10;;;;;;;20.65;59.50;99971.73;1750251;81;21061;-79
2021/08/03 01:55:37;;;;;;;2.22;1.10;;;;;;;20.63;59.68;99975.14;1744476;81;21070;-80
2021/08/03 01:58:05;;;;;;;1.52;1.00;;;;;;;20.62;59.58;99977.52;1719510;81;20992;-79
2021/08/03 02:00:37;;;;;;;3.40;1.30;;;;;;;20.62;59.71;99986.39;1743439;81;21846;-81
2021/08/03 02:03:05;;;;;;;1.72;1.10;;;;;;;20.62;59.68;99984.22;1748049;81;21080;-81
2021/08/03 02:05:32;;;;;;;2.15;0.98;;;;;;;20.62;59.73;99991.75;1746707;82;21000;-81
2021/08/03 02:08:01;;;;;;;3.47;1.22;;;;;;;20.61;59.89;99989.27;1747023;80;20989;-80
2021/08/03 02:10:28;;;;;;;1.22;1.10;;;;;;;20.60;59.91;99988.45;1744844;82;21079;-80
2021/08/03 02:12:54;;;;;;;2.70;1.50;;;;;;;20.58;59.97;99993.19;1750187;82;22921;-80
2021/08/03 02:15:23;;;;;;;5.03;1.20;;;;;;;20.57;59.90;100004.43;1745945;80;20941;-79
2021/08/03 02:17:50;;;;;;;2.08;1.10;;;;;;;20.52;59.87;100006.86;1755183;80;21515;-80
2021/08/03 02:20:19;;;;;;;2.35;1.22;;;;;;;20.50;59.98;100008.08;1747680;82;20992;-79
2021/08/03 02:22:47;;;;;;;1.92;1.12;;;;;;;20.46;60.12;100012.16;1758539;80;21475;-80
2021/08/03 02:25:16;;;;;;;2.05;1.20;;;;;;;20.43;60.10;100009.36;1748717;80;21853;-80
2021/08/03 02:27:43;;;;;;;1.92;1.20;;;;;;;20.38;60.26;100010.45;1743774;80;21102;-80
2021/08/03 02:30:12;;;;;;;3.98;1.30;;;;;;;20.36;60.29;100008.95;1759413;80;21005;-80
2021/08/03 02:32:50;;;;;;;2.65;1.20;;;;;;;20.34;60.36;100011.01;1736362;82;22089;-80
2021/08/03 02:35:21;;;;;;;2.75;1.15;;;;;;;20.34;60.45;100009.16;1735724;82;21045;-79
2021/08/03 02:37:53;;;;;;;2.67;1.30;;;;;;;20.33;60.44;100016.89;1744472;81;22486;-79
2021/08/03 02:40:20;;;;;;;1.40;1.00;;;;;;;20.29;60.33;100021.82;1757250;80;20885;-80
2021/08/03 02:42:57;;;;;;;3.92;1.32;;;;;;;20.25;60.42;100011.14;1749246;81;21052;-79
2021/08/03 02:45:24;;;;;;;2.95;1.12;;;;;;;20.27;60.49;100013.14;1745029;82;20977;-79
2021/08/03 02:47:57;;;;;;;1.40;1.20;;;;;;;20.28;60.50;100010.78;1703983;82;21025;-79
2021/08/03 02:50:25;;;;;;;1.22;1.05;;;;;;;20.28;60.53;100003.25;1697257;84;21870;-79
2021/08/03 02:52:54;;;;;;;2.25;1.20;;;;;;;20.29;60.58;100004.91;1682106;84;21083;-79
2021/08/03 02:55:31;;;;;;;1.12;1.00;;;;;;;20.28;60.54;100019.34;1693525;84;21020;-79
2021/08/03 02:58:07;;;;;;;2.65;1.22;;;;;;;20.27;60.61;100027.06;1660997;84;21103;-79
2021/08/03 03:00:38;;;;;;;2.05;1.10;;;;;;;20.25;60.66;100019.19;1639752;84;21012;-79
2021/08/03 03:03:09;;;;;;;3.25;1.10;;;;;;;20.24;60.87;100020.22;1743130;82;21836;-79
2021/08/03 03:05:37;;;;;;;4.70;1.30;;;;;;;20.25;61.03;100010.31;1743863;81;21006;-79
2021/08/03 03:08:07;;;;;;;7.05;1.27;;;;;;;20.27;61.22;100012.31;1712075;82;20977;-79
2021/08/03 03:10:39;;;;;;;4.17;1.40;;;;;;;20.28;61.66;100018.00;1718393;82;21127;-80
2021/08/03 03:13:36;;;;;;;3.95;1.30;;;;;;;20.25;62.50;100018.36;1684853;83;21041;-80
2021/08/03 03:16:03;;;;;;;4.37;1.52;;;;;;;20.22;62.77;100022.78;1734854;81;21813;-79
2021/08/03 03:18:29;;;;;;;3.05;1.20;;;;;;;20.13;63.44;100031.98;1747941;82;21004;-79
2021/08/03 03:20:57;;;;;;;5.28;1.20;;;;;;;20.10;63.90;100034.54;1744885;81;20953;-79
2021/08/03 03:23:23;;;;;;;2.58;1.20;;;;;;;20.03;64.39;100038.17;1729797;81;20993;-80
2021/08/03 03:25:51;;;;;;;1.57;1.30;;;;;;;19.96;64.55;100036.75;1742316;82;21053;-80
2021/08/03 03:28:25;;;;;;;2.72;1.27;;;;;;;19.91;65.01;100035.17;1733481;82;21844;-79
2021/08/03 03:30:52;;;;;;;2.77;1.10;;;;;;;19.87;65.37;100039.23;1728466;81;20960;-79
2021/08/03 03:33:20;;;;;;;1.92;1.20;;;;;;;19.85;65.56;100037.26;1713519;82;21049;-80
2021/08/03 03:35:48;;;;;;;5.50;1.40;;;;;;;19.79;65.66;100038.04;1743630;81;21018;-80
2021/08/03 03:38:21;;;;;;;1.92;1.30;;;;;;;19.77;66.12;100036.86;1746638;82;21078;-80
2021/08/03 03:40:47;;;;;;;1.65;1.20;;;;;;;19.76;66.14;100035.20;1748022;80;21828;-79
2021/08/03 03:43:17;;;;;;;2.75;1.20;;;;;;;19.78;66.25;100037.18;1720220;82;20953;-80
2021/08/03 03:46:05;;;;;;;2.90;1.32;;;;;;;19.81;66.18;100035.48;1744184;80;21056;-83
2021/08/03 03:48:36;;;;;;;1.85;1.20;;;;;;;19.83;66.06;100032.61;1751437;80;21005;-83
2021/08/03 03:51:03;;;;;;;1.50;1.20;;;;;;;19.85;65.96;100034.58;1709804;83;21009;-83
2021/08/03 03:53:57;;;;;;;2.02;1.10;;;;;;;19.85;65.35;100028.70;1741093;82;23950;-81
2021/08/03 03:56:27;;;;;;;1.75;1.20;;;;;;;19.86;65.40;100031.70;1748280;81;21088;-85
2021/08/03 03:58:58;;;;;;;1.92;1.30;;;;;;;19.89;65.32;100037.22;1744453;82;20970;-85
2021/08/03 04:01:25;;;;;;;1.62;1.40;;;;;;;19.90;64.90;100050.94;1740922;82;21071;-87
2021/08/03 04:03:53;;;;;;;2.98;1.30;;;;;;;19.91;64.96;100041.88;1740741;82;21012;-80
2021/08/03 04:06:21;;;;;;;2.05;1.22;;;;;;;19.94;65.10;100042.31;1751052;82;21854;-80
2021/08/03 04:08:50;;;;;;;2.85;1.30;;;;;;;19.96;64.89;100050.98;1747068;82;21041;-80
2021/08/03 04:11:18;;;;;;;2.02;1.12;;;;;;;19.99;64.68;100052.48;1741518;82;21024;-78
2021/08/03 04:13:50;;;;;;;4.03;1.20;;;;;;;20.00;64.71;100045.58;1745641;82;21042;-78
2021/08/03 04:16:19;;;;;;;1.50;1.10;;;;;;;20.06;64.62;100045.31;1741426;82;21131;-76
2021/08/03 04:18:46;;;;;;;1.60;1.20;;;;;;;20.11;64.72;100044.75;1737629;82;21844;-76
2021/08/03 04:21:14;;;;;;;1.70;1.30;;;;;;;20.15;64.52;100046.02;1720323;82;20951;-79
2021/08/03 04:23:41;;;;;;;2.55;1.20;;;;;;;20.17;64.16;100050.19;1747173;82;20970;-81
2021/08/03 04:26:07;;;;;;;3.75;1.12;;;;;;;20.19;63.93;100054.02;1742598;82;20958;-80
2021/08/03 04:28:34;;;;;;;2.05;1.20;;;;;;;20.20;63.86;100042.27;1742815;81;21056;-79
2021/08/03 04:31:02;;;;;;;1.87;1.40;;;;;;;20.22;63.74;100045.57;1686636;83;22902;-76
2021/08/03 04:33:29;;;;;;;2.50;1.30;;;;;;;20.27;63.70;100048.02;1744806;82;21012;-81
2021/08/03 04:35:55;;;;;;;2.05;1.20;;;;;;;20.32;63.58;100044.73;1676973;83;21005;-79
2021/08/03 04:38:22;;;;;;;2.17;1.40;;;;;;;20.39;63.42;100046.14;1735137;82;21008;-81
2021/08/03 04:40:48;;;;;;;1.95;1.22;;;;;;;20.44;63.42;100047.23;1715578;83;21052;-80
2021/08/03 04:43:15;;;;;;;1.27;1.17;;;;;;;20.50;63.13;100057.72;1715559;83;22656;-83
2021/08/03 04:45:42;;;;;;;1.30;1.20;;;;;;;20.56;63.01;100052.93;1702346;83;21584;-80
2021/08/03 04:48:08;;;;;;;1.82;1.00;;;;;;;20.65;62.81;100048.22;1746123;82;21052;-79
2021/08/03 04:50:35;;;;;;;2.33;1.32;;;;;;;20.74;62.75;100055.10;1747676;80;21438;-78
2021/08/03 04:53:03;;;;;;;4.45;1.57;;;;;;;20.81;61.93;100059.50;1761085;80;22089;-85
2021/08/03 04:55:30;;;;;;;3.95;1.20;;;;;;;20.89;61.66;100062.55;1754199;80;22671;-83
2021/08/03 04:57:56;;;;;;;3.55;1.20;;;;;;;21.00;61.68;100066.03;1736975;80;21529;-83
2021/08/03 05:00:23;;;;;;;1.17;1.07;;;;;;;21.06;61.17;100072.48;1748969;81;21456;-82
2021/08/03 05:02:50;;;;;;;2.30;1.17;;;;;;;21.11;61.14;100066.81;1741737;81;21053;-82
2021/08/03 05:05:17;;;;;;;1.55;1.05;;;;;;;21.17;60.46;100077.81;1746111;81;21053;-81
2021/08/03 05:07:58;;;;;;;2.75;1.10;;;;;;;21.17;60.21;100082.67;1747055;82;22254;-81
2021/08/03 05:10:25;;;;;;;3.60;1.12;;;;;;;21.15;59.67;100088.75;1740020;81;20960;-81
2021/08/03 05:12:52;;;;;;;1.55;1.02;;;;;;;21.11;59.75;100084.27;1743490;82;21027;-81
2021/08/03 05:15:20;;;;;;;2.80;1.12;;;;;;;21.11;59.74;100084.27;1741072;82;21076;-81
2021/08/03 05:17:47;;;;;;;1.92;1.25;;;;;;;21.14;59.79;100090.61;1745472;81;21045;-82
2021/08/03 05:20:14;;;;;;;1.20;1.05;;;;;;;21.18;59.83;100084.84;1742818;81;21837;-82
2021/08/03 05:22:41;;;;;;;1.80;1.32;;;;;;;21.24;59.96;100083.54;1709898;83;21520;-82
2021/08/03 05:25:10;;;;;;;3.50;1.30;;;;;;;21.28;59.91;100082.66;1734374;82;21454;-82
2021/08/03 05:27:38;;;;;;;3.08;1.20;;;;;;;21.31;59.58;100082.25;1739212;82;21028;-81
2021/08/03 05:30:07;;;;;;;2.08;1.30;;;;;;;21.30;58.87;100085.97;1702912;83;21059;-80
2021/08/03 05:32:35;;;;;;;3.60;1.30;;;;;;;21.23;58.67;100085.91;1750536;82;21774;-83
2021/08/03 05:35:04;;;;;;;1.35;1.25;;;;;;;21.18;58.88;100088.35;1751541;81;21020;-80
2021/08/03 05:37:31;;;;;;;1.50;1.20;;;;;;;21.12;59.27;100095.33;1715713;83;21016;-80
2021/08/03 05:39:59;;;;;;;1.80;1.50;;;;;;;21.13;59.45;100100.19;1692321;83;21041;-81
2021/08/03 05:42:26;;;;;;;3.65;1.55;;;;;;;21.18;59.58;100109.01;1684156;85;21024;-80
2021/08/03 05:44:52;;;;;;;2.02;1.47;;;;;;;21.23;59.10;100111.44;1680942;85;21807;-78
2021/08/03 05:47:19;;;;;;;2.05;1.50;;;;;;;21.24;58.89;100105.55;1685919;85;20985;-79
2021/08/03 05:49:46;;;;;;;1.95;1.37;;;;;;;21.28;59.04;100102.80;1744240;81;21518;-80
2021/08/03 05:52:13;;;;;;;1.82;1.55;;;;;;;21.32;58.92;100106.73;1685045;84;21456;-80
2021/08/03 05:54:40;;;;;;;2.72;1.40;;;;;;;21.34;58.82;100105.53;1676722;85;22242;-80
2021/08/03 05:57:06;;;;;;;2.35;1.30;;;;;;;21.35;58.73;100106.36;1679686;85;21826;-78
2021/08/03 05:59:32;;;;;;;2.08;1.40;;;;;;;21.37;58.85;100104.30;1678160;85;21559;-80
2021/08/03 06:01:59;;;;;;;2.45;1.35;;;;;;;21.43;58.30;100108.37;1681176;84;21397;-80
2021/08/03 06:04:26;;;;;;;2.10;1.35;;;;;;;21.51;57.81;100110.04;1681201;85;21575;-78
2021/08/03 06:06:54;;;;;;;1.80;1.42;;;;;;;21.55;57.59;100112.66;1682046;84;21047;-78
2021/08/03 06:09:21;;;;;;;1.75;1.30;;;;;;;21.66;57.14;100108.58;1694030;84;22714;-80
2021/08/03 06:11:49;;;;;;;2.10;1.57;;;;;;;21.72;56.91;100110.47;1693842;84;20929;-79
2021/08/03 06:14:35;;;;;;;1.90;1.30;;;;;;;21.76;56.51;100110.89;1690653;84;21316;-81
2021/08/03 06:17:07;;;;;;;1.47;1.37;;;;;;;21.80;56.83;100121.55;1690724;84;22149;-79
2021/08/03 06:19:49;;;;;;;1.85;1.57;;;;;;;21.88;56.69;100129.44;1646294;85;21646;-85
2021/08/03 06:22:16;;;;;;;1.92;1.50;;;;;;;21.95;55.56;100131.64;1672584;84;21819;-81
2021/08/03 06:24:44;;;;;;;3.00;1.67;;;;;;;21.88;54.73;100131.61;1674015;84;21067;-83
2021/08/03 06:27:13;;;;;;;1.60;1.30;;;;;;;21.85;55.11;100129.33;1644491;86;20944;-86
2021/08/03 06:29:40;;;;;;;1.90;1.60;;;;;;;21.86;55.25;100131.50;1681201;84;21065;-80
2021/08/03 06:32:08;;;;;;;1.62;1.47;;;;;;;21.85;55.53;100136.57;1661065;85;21052;-80
2021/08/03 06:34:37;;;;;;;2.83;1.32;;;;;;;21.87;55.79;100138.54;1674173;85;22256;-80
2021/08/03 06:37:04;;;;;;;2.55;1.47;;;;;;;21.87;56.01;100148.78;1673221;84;21051;-82
2021/08/03 06:39:31;;;;;;;2.98;1.50;;;;;;;21.85;56.09;100145.98;1681268;84;21030;-83
2021/08/03 06:42:11;;;;;;;3.85;1.65;;;;;;;21.83;56.46;100146.70;1686643;84;21045;-82
2021/08/03 06:44:50;;;;;;;2.65;1.45;;;;;;;21.82;56.39;100149.08;1665190;85;21065;-79
2021/08/03 06:47:24;;;;;;;2.22;1.57;;;;;;;21.79;56.32;100146.25;1660428;85;21862;-81
2021/08/03 06:49:51;;;;;;;3.35;1.70;;;;;;;21.81;56.66;100150.95;1657930;86;21012;-82
2021/08/03 06:52:18;;;;;;;1.40;1.27;;;;;;;21.95;56.36;100149.13;1636869;86;21076;-82
2021/08/03 06:54:51;;;;;;;1.92;1.50;;;;;;;22.11;56.14;100156.88;1682382;84;21052;-82
2021/08/03 06:57:18;;;;;;;4.47;1.20;;;;;;;22.30;55.97;100163.87;1693205;83;21096;-86
2021/08/03 06:59:52;;;;;;;1.10;0.98;;;;;;;22.43;53.76;100159.33;1687606;84;22786;-77
2021/08/03 07:02:32;;;;;;;1.30;1.17;;;;;;;22.47;51.15;100155.19;1714019;83;21111;-84
2021/08/03 07:05:03;;;;;;;2.60;1.30;;;;;;;22.47;51.13;100153.01;1684087;85;21478;-85
2021/08/03 07:07:29;;;;;;;1.60;1.20;;;;;;;22.48;52.03;100148.77;1678659;85;21061;-87
2021/08/03 07:09:56;;;;;;;1.82;1.45;;;;;;;22.59;52.06;100145.19;1677101;85;21033;-81
2021/08/03 07:12:23;;;;;;;3.05;1.27;;;;;;;22.68;52.45;100139.39;1687823;84;21813;-83
2021/08/03 07:14:49;;;;;;;3.10;1.37;;;;;;;22.83;52.40;100139.17;1748485;81;21044;-87
2021/08/03 07:17:16;;;;;;;1.80;1.30;;;;;;;22.91;51.57;100147.60;1713416;83;21043;-81
2021/08/03 07:19:43;;;;;;;3.15;1.35;;;;;;;22.90;51.90;100156.20;1712959;83;21055;-84
2021/08/03 07:22:11;;;;;;;2.58;1.35;;;;;;;22.91;51.52;100157.03;1700971;83;20997;-84
2021/08/03 07:24:38;;;;;;;1.95;1.32;;;;;;;22.97;51.81;100153.00;1741259;82;21862;-82
2021/08/03 07:27:05;;;;;;;2.20;1.60;;;;;;;23.01;51.12;100151.53;1748584;82;20933;-85
2021/08/03 07:29:32;;;;;;;3.33;1.60;;;;;;;23.06;51.39;100154.41;1719916;83;20984;-88
2021/08/03 07:31:58;;;;;;;1.65;1.40;;;;;;;23.09;51.66;100158.05;1746938;81;21094;-87
2021/08/03 07:34:25;;;;;;;4.28;1.37;;;;;;;23.12;50.96;100151.42;1751822;81;21027;-87
2021/08/03 07:36:53;;;;;;;2.02;1.50;;;;;;;23.06;50.90;100163.02;1742675;82;20933;-87
2021/08/03 07:39:19;;;;;;;3.20;1.45;;;;;;;23.10;51.00;100158.88;1746691;82;21119;-88
2021/08/03 07:41:46;;;;;;;2.22;1.50;;;;;;;23.19;50.69;100160.33;1748441;82;20953;-88
2021/08/03 07:44:13;;;;;;;2.95;1.50;;;;;;;23.21;50.66;100162.29;1714688;82;20981;-87
2021/08/03 07:46:39;;;;;;;3.52;1.30;;;;;;;23.26;50.00;100164.34;1743908;82;20992;-87
2021/08/03 07:49:06;;;;;;;2.67;1.47;;;;;;;23.31;49.58;100158.64;1743924;82;21832;-87
2021/08/03 07:51:34;;;;;;;3.42;1.52;;;;;;;23.37;49.66;100161.03;1743747;82;21386;-87
2021/08/03 07:54:00;;;;;;;1.72;1.45;;;;;;;23.40;49.95;100163.30;1743761;82;21065;-88
2021/08/03 07:56:27;;;;;;;1.85;1.62;;;;;;;23.39;50.05;100164.34;1743244;82;21548;-89
2021/08/03 07:58:53;;;;;;;2.52;1.62;;;;;;;23.32;49.67;100162.99;1746626;82;20953;-85
2021/08/03 08:01:20;;;;;;;2.37;1.70;;;;;;;23.22;49.93;100159.90;1750180;81;22174;-81
2021/08/03 08:03:46;;;;;;;2.00;1.60;;;;;;;23.20;49.84;100161.16;1752250;82;20930;-82
2021/08/03 08:06:15;;;;;;;2.47;1.62;;;;;;;23.32;50.98;100148.17;1750515;82;20996;-83
2021/08/03 08:08:42;;;;;;;2.65;1.70;;;;;;;23.56;50.44;100152.59;1748359;82;21017;-83
2021/08/03 08:11:10;;;;;;;2.40;1.70;;;;;;;23.67;49.83;100158.18;1749692;82;21028;-82
2021/08/03 08:13:37;;;;;;;3.10;1.80;;;;;;;23.70;49.53;100151.52;1747810;82;21812;-81
2021/08/03 08:16:05;;;;;;;1.65;1.47;;;;;;;23.75;49.73;100157.12;1742072;82;21056;-81
2021/08/03 08:18:31;;;;;;;2.20;1.60;;;;;;;23.81;49.93;100163.52;1684891;83;21024;-83
2021/08/03 08:20:58;;;;;;;1.60;1.50;;;;;;;23.83;48.86;100159.55;1748393;82;21059;-79
2021/08/03 08:23:24;;;;;;;3.12;1.70;;;;;;;23.85;48.31;100150.75;1744723;82;21028;-81
2021/08/03 08:25:51;;;;;;;2.12;1.60;;;;;;;23.90;48.77;100153.63;1744870;82;21811;-83
2021/08/03 08:28:18;;;;;;;2.00;1.60;;;;;;;24.05;49.19;100157.41;1715095;83;21018;-84
2021/08/03 08:30:44;;;;;;;2.80;1.70;;;;;;;24.10;48.40;100148.66;1679987;85;21053;-79
2021/08/03 08:33:11;;;;;;;3.72;1.70;;;;;;;24.14;49.17;100156.13;1678615;84;21151;-78
2021/08/03 08:35:38;;;;;;;3.47;1.57;;;;;;;24.23;49.26;100149.43;1678485;85;21084;-80
2021/08/03 08:38:04;;;;;;;3.25;1.70;;;;;;;24.39;49.70;100153.50;1712306;83;22444;-81
2021/08/03 08:40:32;;;;;;;2.00;1.80;;;;;;;24.57;49.37;100145.19;1664617;85;21433;-77
2021/08/03 08:42:58;;;;;;;2.27;1.70;;;;;;;24.74;49.10;100143.61;1719626;81;21083;-82
2021/08/03 08:45:26;;;;;;;3.52;1.52;;;;;;;24.89;48.42;100142.73;1761985;80;21032;-80
2021/08/03 08:47:53;;;;;;;2.27;1.85;;;;;;;24.94;48.07;100155.08;1761799;81;21036;-80
2021/08/03 08:50:21;;;;;;;3.22;1.98;;;;;;;24.93;48.05;100141.27;1751005;81;22200;-79
2021/08/03 08:52:53;;;;;;;2.27;1.75;;;;;;;24.94;47.14;100142.09;1742096;82;21525;-82
2021/08/03 08:55:21;;;;;;;3.37;1.70;;;;;;;24.90;47.71;100140.38;1742976;82;21036;-81
2021/08/03 08:57:49;;;;;;;4.42;1.90;;;;;;;24.97;47.56;100132.19;1742685;82;21107;-80
2021/08/03 09:00:16;;;;;;;2.67;1.80;;;;;;;25.11;47.47;100136.47;1743999;81;21092;-81
2021/08/03 09:02:44;;;;;;;2.02;1.50;;;;;;;25.11;46.95;100130.53;1733649;81;22822;-86
2021/08/03 09:05:14;;;;;;;2.37;1.60;;;;;;;25.04;47.19;100136.52;1706465;83;21024;-83
2021/08/03 09:07:53;;;;;;;2.70;1.60;;;;;;;25.19;47.68;100131.27;1664880;85;21100;-83
2021/08/03 09:10:49;;;;;;;1.72;1.50;;;;;;;25.29;46.89;100137.02;1689256;83;21000;-77
2021/08/03 09:13:18;;;;;;;;;;;;;;;25.40;47.27;100140.33;1707193;84;21036;-80
2021/08/03 09:15:47;;;;;;;3.45;1.60;;;;;;;25.55;47.18;100136.72;1689208;84;22487;-80
2021/08/03 09:18:25;;;;;;;2.00;1.50;;;;;;;25.59;45.94;100134.41;1673793;85;20972;-81
2021/08/03 09:20:52;;;;;;;1.77;1.35;;;;;;;25.65;45.69;100134.83;1681442;84;21020;-80
2021/08/03 09:23:19;;;;;;;1.75;1.50;;;;;;;25.75;45.93;100128.39;1661732;86;21105;-82
2021/08/03 09:25:57;;;;;;;3.35;1.50;;;;;;;25.89;46.00;100127.19;1676694;84;21360;-78
2021/08/03 09:28:24;;;;;;;2.37;1.45;;;;;;;26.04;45.30;100115.94;1691281;84;21838;-78
2021/08/03 09:30:51;;;;;;;3.85;1.42;;;;;;;26.17;45.49;100123.08;1674752;83;21047;-77
2021/08/03 09:33:23;;;;;;;2.62;1.60;;;;;;;26.34;45.91;100115.92;1662608;85;20969;-79
2021/08/03 09:35:52;;;;;;;3.05;1.40;;;;;;;26.51;44.88;100110.17;1685352;83;21011;-76
2021/08/03 09:38:19;;;;;;;3.45;1.62;;;;;;;26.65;45.15;100107.27;1693099;84;20965;-82
2021/08/03 09:40:48;;;;;;;3.02;1.50;;;;;;;26.81;44.05;100108.74;1674906;85;22257;-77
2021/08/03 09:43:17;;;;;;;1.82;1.50;;;;;;;26.63;42.23;100106.66;1665570;85;21421;-74
2021/08/03 09:45:49;;;;;;;1.87;1.47;;;;;;;26.47;43.07;100097.34;1661982;86;20959;-73
2021/08/03 09:48:18;;;;;;;3.43;1.67;;;;;;;26.47;44.61;100101.41;1667969;85;21395;-75
2021/08/03 09:50:59;;;;;;;2.62;1.40;;;;;;;26.71;44.77;100100.91;1662186;86;21331;-74
2021/08/03 09:53:52;;;;;;;1.75;1.32;;;;;;;27.00;44.20;100099.15;1661855;86;21781;-74
2021/08/03 09:56:30;;;;;;;1.60;1.45;;;;;;;27.07;42.75;100097.18;1672804;85;21045;-76
2021/08/03 09:59:03;;;;;;;1.67;1.30;;;;;;;27.01;43.11;100096.73;1669626;85;21064;-76
2021/08/03 10:01:38;;;;;;;2.85;1.40;;;;;;;27.15;43.04;100091.94;1675487;85;21028;-73
2021/08/03 10:04:08;;;;;;;1.80;1.10;;;;;;;27.39;42.80;100095.72;1642953;87;21029;-73
2021/08/03 10:06:38;;;;;;;1.70;1.30;;;;;;;27.69;42.74;100101.52;1686376;84;21449;-72
2021/08/03 10:09:07;;;;;;;2.33;1.70;;;;;;;27.96;42.30;100099.06;1673122;85;20983;-71
2021/08/03 10:11:34;;;;;;;5.95;1.40;;;;;;;28.13;42.12;100092.33;1684802;85;21020;-71
2021/08/03 10:14:01;;;;;;;2.47;1.20;;;;;;;28.27;41.67;100090.11;1656799;86;21499;-71
2021/08/03 10:16:27;;;;;;;2.47;1.30;;;;;;;28.43;41.34;100092.06;1686143;83;21485;-72
2021/08/03 10:19:00;;;;;;;1.22;1.02;;;;;;;28.34;38.53;100107.94;1659411;85;21583;-71
2021/08/03 10:21:35;;;;;;;2.95;1.32;;;;;;;27.91;37.59;100098.45;1629621;86;21033;-71
2021/08/03 10:24:17;;;;;;;2.85;1.32;;;;;;;27.58;39.25;100095.03;1641751;87;21108;-71
2021/08/03 10:27:12;;;;;;;2.67;1.47;;;;;;;27.57;39.86;100085.24;1672378;85;21018;-71
2021/08/03 10:29:49;;;;;;;2.10;1.10;;;;;;;27.62;38.91;100098.92;1669849;85;21073;-72
2021/08/03 10:32:42;;;;;;;4.42;1.30;;;;;;;27.62;37.94;100094.86;1652559;86;21625;-71
2021/08/03 10:35:15;;;;;;;1.20;1.10;;;;;;;27.61;39.36;100091.03;1653539;86;21006;-71
2021/08/03 10:38:03;;;;;;;1.90;1.20;;;;;;;27.75;40.43;100091.59;1673657;85;21028;-71
2021/08/03 10:40:50;;;;;;;1.95;1.20;;;;;;;28.04;39.85;100087.00;1653625;86;21025;-71
2021/08/03 10:43:25;;;;;;;1.72;1.30;;;;;;;28.40;38.85;100096.64;1673326;85;21010;-71
2021/08/03 10:46:12;;;;;;;2.67;1.45;;;;;;;28.61;39.31;100086.93;1656631;85;21843;-73
2021/08/03 10:48:43;;;;;;;2.95;1.30;;;;;;;28.83;38.52;100087.00;1639008;86;21060;-73
2021/08/03 10:51:20;;;;;;;4.55;1.32;;;;;;;29.02;38.84;100085.69;1662260;84;21483;-74
2021/08/03 10:54:09;;;;;;;3.15;1.40;;;;;;;29.28;38.94;100084.97;1687719;84;20981;-75
2021/08/03 10:57:03;;;;;;;1.98;1.40;;;;;;;29.45;36.75;100086.28;1673034;85;21084;-74
2021/08/03 10:59:36;;;;;;;1.32;1.20;;;;;;;29.38;37.23;100084.28;1672562;85;21035;-74
2021/08/03 11:02:05;;;;;;;1.77;1.40;;;;;;;29.30;36.55;100091.52;1634195;85;21063;-74
2021/08/03 11:04:55;;;;;;;1.57;1.47;;;;;;;29.38;37.21;100082.92;1716215;83;21017;-74
2021/08/03 11:07:36;;;;;;;3.65;1.55;;;;;;;29.55;36.52;100078.81;1693597;83;21044;-73
2021/08/03 11:10:20;;;;;;;3.10;1.22;;;;;;;29.67;36.42;100087.66;1678469;84;21001;-75
2021/08/03 11:12:51;;;;;;;2.85;1.40;;;;;;;29.60;35.31;100081.05;1684927;83;21833;-76
2021/08/03 11:15:26;;;;;;;1.60;1.47;;;;;;;29.57;36.85;100079.38;1672463;85;21074;-75
2021/08/03 11:17:59;;;;;;;1.32;1.20;;;;;;;29.70;34.92;100082.23;1672366;85;21026;-75
2021/08/03 11:20:47;;;;;;;2.42;1.40;;;;;;;29.73;35.90;100079.03;1700361;84;21587;-75
2021/08/03 11:23:16;;;;;;;2.45;1.50;;;;;;;29.89;37.06;100085.73;1637989;85;21010;-76
2021/08/03 11:25:46;;;;;;;1.30;1.20;;;;;;;30.11;35.14;100078.92;1680848;85;22479;-75
2021/08/03 11:28:20;;;;;;;1.72;1.45;;;;;;;30.18;35.59;100067.80;1681386;85;21001;-75
2021/08/03 11:30:49;;;;;;;4.42;1.22;;;;;;;30.46;35.58;100077.59;1664398;85;21040;-75
2021/08/03 11:33:18;;;;;;;1.47;1.37;;;;;;;30.69;35.54;100067.73;1670293;85;21081;-76
2021/08/03 11:35:45;;;;;;;1.30;1.20;;;;;;;30.95;35.39;100074.70;1658309;85;21108;-75
2021/08/03 11:38:14;;;;;;;2.35;1.20;;;;;;;31.16;35.55;100066.91;1648440;86;21826;-75
2021/08/03 11:40:42;;;;;;;4.75;1.65;;;;;;;31.41;35.55;100058.61;1658562;85;21056;-74
2021/08/03 11:43:09;;;;;;;1.47;1.20;;;;;;;31.57;34.42;100069.88;1656354;86;22200;-75